Alderholt, United Kingdom
Current Conditions -  °F | °C
As of 7:20 AM on Sunday 23 Nov 2014 (Local Time) from EGHH Reporting Station
Moderate Rain Moderate Rain  
Wind Chill: 45°   Ceiling: 4100
Heat Index: 48°   Visibility: 4mi
Dew Point: 46°   Wind: 7mph
Humidity: 93%   Direction: 360°N
Pressure: 30"   Gusts: NA
Location:  50.92°N, 1.83°W
Report Text: EGHH 230720Z 36006KT 310V030 7000 RA BKN041 09/08 Q1016
Loading
Personal Weather Stations






























Interactive Weather Map New forecast layout! Learn more

10-Day Weather Forecast

Advertisements
Track Severe Weather on mobile